Date,TemperatureHighF,TemperatureAvgF,TemperatureLowF,DewpointHighF,DewpointAvgF,DewpointLowF,HumidityHigh,HumidityAvg,HumidityLow,PressureMaxIn,PressureMinIn,WindSpeedMaxMPH,WindSpeedAvgMPH,GustSpeedMaxMPH,PrecipitationSumIn
2013-1-1,68.0,46.1,43.0,43.4,38.7,35.4,83,76,36,30.29,29.92,4,2,17,0.00
2013-1-2,58.1,53.1,45.0,54.7,51.0,39.3,100,93,80,30.45,30.19,6,2,24,0.00
2013-1-3,57.4,52.6,43.0,54.5,51.1,35.4,100,95,70,30.52,29.55,2,1,11,7.35
2013-1-4,65.1,50.1,42.4,55.8,48.1,42.2,100,93,65,30.03,29.91,3,1,122,0.00
2013-1-5,54.7,50.8,43.2,53.1,49.4,42.7,100,95,87,29.93,29.82,4,1,12,0.00
2013-1-6,68.0,50.4,38.8,50.4,47.2,-13.0,99,90,10,29.92,29.69,4,1,100,5.83
2013-1-7,55.9,52.3,48.9,54.4,51.8,48.7,100,98,91,29.81,29.60,5,3,14,0.04
2013-1-8,55.6,49.0,37.0,55.4,47.5,36.8,100,95,80,29.86,29.58,5,1,17,0.01
2013-1-9,61.2,38.8,32.0,57.7,36.8,31.8,100,93,58,29.84,29.65,1,0,6,0.00
2013-1-10,45.7,41.2,33.8,45.4,39.8,33.6,99,95,82,29.65,29.50,2,0,12,0.04
2013-1-11,47.1,41.1,33.3,46.9,40.4,-7.4,100,98,10,29.64,29.37,2,0,11,0.01
2013-1-12,46.9,44.7,41.2,46.5,41.8,33.5,100,90,73,29.66,29.34,4,2,13,0.01
2013-1-13,44.1,38.5,32.9,44.1,36.7,30.5,100,94,75,29.75,29.66,2,0,11,0.01
2013-1-14,47.5,41.9,37.2,43.4,39.0,34.8,97,89,78,29.67,29.45,4,2,17,0.02
2013-1-15,52.0,39.7,34.7,41.4,33.5,-13.9,100,83,10,29.51,29.33,4,1,122,1.70
2013-1-16,68.0,45.7,40.6,43.4,39.6,35.4,99,82,36,30.21,29.31,3,2,12,7.26
2013-1-17,68.7,59.9,52.0,54.3,45.3,36.2,84,61,36,30.68,30.57,6,1,13,0.00
2013-1-18,68.0,51.7,37.6,43.4,37.8,35.4,99,61,36,30.80,29.91,4,1,14,0.01
2013-1-20,40.5,40.5,40.5,33.8,33.7,33.5,77,76,76,29.82,29.82,7,6,9,4.49
2013-1-21,40.3,36.1,30.9,39.5,34.3,30.7,99,93,75,29.81,29.75,9,1,11,0.18
2013-1-22,38.3,33.3,28.6,38.0,33.0,28.3,99,99,99,30.18,29.80,3,0,4,0.01
2013-1-23,40.1,37.6,31.1,37.4,34.7,30.9,99,90,77,30.29,30.15,10,2,13,0.01
2013-1-24,42.6,40.3,37.4,41.5,37.9,34.9,97,91,88,30.45,30.29,8,2,11,0.00
2013-1-25,47.1,44.7,42.1,46.9,44.2,40.4,99,98,88,30.37,29.78,13,6,18,0.59
2013-1-26,47.8,42.3,37.6,44.2,38.3,34.4,96,86,74,30.16,29.99,15,4,15,0.00
2013-1-27,41.2,40.4,39.4,37.5,35.3,33.5,91,82,76,29.86,29.65,16,10,24,0.12
2013-1-28,52.0,45.8,39.4,48.5,40.2,33.9,99,81,69,29.98,29.54,22,11,37,0.19
2013-1-29,60.1,50.7,45.7,56.8,46.2,41.2,99,85,75,29.89,29.55,17,9,30,0.05
2013-1-31,44.6,44.6,44.6,39.1,38.8,38.5,81,80,79,29.93,29.91,8,7,21,0.00
2013-2-3,51.8,48.8,43.2,49.8,46.5,38.0,97,92,82,30.38,30.05,13,7,19,0.01
2013-2-4,52.0,43.1,33.8,50.5,39.1,32.8,97,86,76,30.11,29.91,15,8,22,0.08
2013-2-5,45.3,39.8,34.3,41.9,34.7,29.1,91,82,70,29.95,29.64,23,10,30,0.14
2013-2-6,48.9,41.0,36.5,37.1,33.1,29.7,85,74,56,30.50,29.95,13,5,21,0.00
2013-2-7,58.5,40.4,36.7,45.2,36.6,32.2,99,86,54,30.50,29.78,10,2,17,2.82
2013-2-8,47.8,45.4,42.6,45.3,42.7,39.0,97,91,87,29.94,29.85,8,3,11,2.82
2013-2-9,53.6,47.0,43.9,47.0,44.6,42.8,99,92,75,29.85,29.36,8,2,17,0.05
2013-2-10,46.0,43.8,41.0,45.8,43.5,40.7,99,99,97,29.35,28.84,8,2,12,0.48
2013-2-11,41.7,40.0,39.0,41.5,39.7,38.8,99,99,99,29.49,28.91,8,2,8,0.21
2013-2-12,41.9,39.7,38.7,41.6,39.5,38.4,99,99,99,29.67,29.49,7,2,8,0.04
2013-2-13,56.1,48.1,42.1,53.8,47.4,41.8,99,98,88,29.64,29.32,9,4,14,0.11
2013-2-14,57.0,47.6,42.8,47.9,42.7,38.3,95,84,65,29.70,29.34,12,4,16,0.01
2013-2-15,59.4,45.1,37.9,47.6,40.5,37.4,99,84,63,29.80,29.69,5,1,8,0.00
2013-2-16,53.6,48.0,42.3,50.4,46.3,39.5,99,94,85,29.77,29.71,10,4,13,0.00
2013-2-17,49.8,46.1,43.9,45.9,43.4,36.5,98,90,75,29.71,29.62,12,7,17,0.00
2013-2-18,50.0,43.7,39.7,40.3,38.2,33.7,99,81,67,29.75,29.63,11,5,14,0.00
2013-2-19,53.8,40.9,32.5,43.8,37.6,31.8,99,89,65,29.76,29.70,6,2,7,0.00
2013-2-20,45.7,40.3,32.5,41.7,37.2,31.8,99,89,79,29.82,29.72,13,6,16,0.00
2013-2-21,40.5,37.8,36.5,35.1,30.2,27.3,81,74,68,29.86,29.81,14,8,17,0.00
2013-2-22,37.8,36.5,34.7,28.0,26.1,24.2,70,66,61,29.91,29.82,9,4,12,0.00
2013-2-23,38.7,36.3,33.6,36.2,30.1,24.3,99,79,60,29.99,29.90,7,2,10,0.05
2013-2-24,41.5,38.4,35.4,35.9,31.7,25.1,95,77,60,30.12,29.98,9,2,9,0.13
2013-2-25,52.9,40.2,32.5,44.8,35.1,31.3,99,83,59,30.24,30.11,6,2,8,0.00
2013-2-26,44.6,42.0,37.8,40.7,39.2,37.2,99,90,79,30.32,30.20,5,2,8,0.00
2013-2-27,46.6,42.7,41.0,41.3,39.2,37.7,95,87,77,30.34,30.27,7,2,8,0.00
2013-2-28,46.2,42.6,39.9,44.3,40.5,38.4,99,93,86,30.27,30.15,5,2,7,0.00
2013-3-1,52.7,44.3,39.2,47.2,40.8,34.4,99,88,73,30.19,30.14,7,2,8,0.00
2013-3-2,55.8,43.8,33.6,41.3,36.6,32.3,97,77,52,30.14,29.95,5,1,6,0.00
2013-3-3,49.1,43.1,38.3,41.4,38.2,35.4,93,83,59,29.95,29.71,6,2,8,0.00
2013-3-4,45.9,40.6,32.4,38.1,35.4,31.1,96,82,67,29.71,29.39,7,3,10,0.00
2013-3-5,57.0,41.6,30.0,47.7,38.4,29.8,99,89,60,29.39,29.22,5,1,5,0.00
2013-3-6,49.8,44.8,41.5,49.6,44.6,41.3,99,99,97,29.22,29.11,2,0,3,0.07
2013-3-7,46.8,45.9,45.0,46.5,45.7,44.7,99,99,99,29.12,28.95,6,2,8,0.50
2013-3-8,48.4,46.8,45.5,48.1,46.5,45.2,99,99,99,29.15,28.93,9,3,13,0.26
2013-3-9,46.2,44.3,41.0,46.0,44.0,40.7,99,99,99,29.36,29.15,11,4,14,0.14
2013-3-10,40.8,39.5,34.7,40.6,33.4,20.2,99,80,53,29.60,29.35,21,12,24,0.02
2013-3-11,37.4,34.2,31.5,29.0,24.1,18.6,89,66,52,29.73,29.59,21,10,23,0.00
2013-3-12,48.0,38.7,33.8,33.6,27.3,20.1,86,64,45,29.75,29.63,16,4,17,0.00
2013-3-13,52.5,40.1,34.9,38.8,35.1,31.7,95,83,55,29.73,29.62,10,3,13,0.01
2013-3-14,52.5,42.4,31.6,43.6,36.9,29.3,96,82,59,29.74,29.40,8,2,12,0.05
2013-3-15,54.7,45.6,35.2,43.4,38.6,32.3,90,77,56,29.39,29.00,14,4,16,0.02
2013-3-16,56.3,41.2,31.8,43.5,36.6,30.7,99,84,59,29.00,28.92,7,2,8,0.01
2013-3-17,47.3,39.3,37.0,42.4,37.3,33.8,99,93,82,28.95,28.77,9,2,10,0.11
2013-3-18,44.4,40.2,37.0,41.6,39.0,36.3,99,96,82,29.10,28.82,14,4,17,0.14
2013-3-19,41.0,37.4,34.0,40.5,36.4,33.6,99,96,83,29.17,29.08,10,2,14,0.19
2013-3-20,46.9,40.0,34.7,45.6,38.8,34.5,99,96,84,29.55,29.17,8,2,11,0.11
2013-3-21,45.1,41.7,40.1,41.6,39.0,36.8,99,90,76,29.55,29.28,17,10,24,0.37
2013-3-22,41.7,41.1,39.0,41.5,40.7,38.8,99,99,94,29.36,29.18,16,9,18,1.97
2013-3-23,40.3,39.0,37.6,38.9,37.0,34.1,99,93,84,29.58,29.36,10,5,17,0.08
2013-3-24,37.6,36.6,35.8,34.4,31.0,28.0,88,80,72,29.72,29.58,14,8,19,0.00
2013-3-25,41.7,37.9,35.4,29.1,27.4,25.5,73,66,59,29.76,29.72,17,9,20,0.00
2013-3-26,41.5,37.1,34.3,31.9,27.7,23.0,83,69,59,29.76,29.67,14,7,18,0.00
2013-3-27,39.7,35.7,32.7,36.3,31.3,22.5,98,84,59,29.69,29.64,13,6,20,0.02
2013-3-28,43.3,38.0,33.8,31.9,28.1,24.0,91,68,58,29.67,29.59,14,5,14,0.04
2013-3-29,42.6,38.5,35.4,27.3,25.6,24.0,65,59,52,29.58,29.49,11,5,22,0.00
2013-3-30,48.9,40.9,36.1,29.8,25.9,23.0,64,55,42,29.62,29.52,11,5,12,0.00
2013-3-31,45.5,41.2,39.0,33.2,30.0,24.8,76,64,54,29.61,29.49,14,7,21,0.00
2013-4-1,41.2,39.3,37.6,31.1,28.6,26.5,71,65,60,29.60,29.49,14,7,16,0.00
2013-4-2,51.8,42.4,35.2,35.0,29.7,25.0,70,61,44,29.81,29.61,11,5,13,0.00
2013-4-3,49.6,43.2,37.2,36.8,33.5,29.7,83,69,57,29.89,29.81,12,6,15,0.00
2013-4-4,52.3,44.4,38.8,36.3,32.9,29.5,77,64,50,29.87,29.83,11,6,17,0.00
2013-4-5,50.7,43.6,34.9,40.1,33.9,28.1,84,69,55,29.94,29.83,10,5,14,0.00
2013-4-6,55.8,41.0,29.3,42.0,32.7,26.4,93,73,48,30.00,29.88,8,2,10,0.00
2013-4-7,47.5,41.6,33.3,41.0,35.5,28.3,94,79,64,29.89,29.47,8,3,13,0.00
2013-4-8,47.7,43.6,40.6,40.1,37.7,34.1,93,80,68,29.47,29.15,15,6,18,0.00
2013-4-9,46.8,42.1,38.8,41.1,37.7,35.8,90,84,75,29.27,29.13,13,7,17,0.00
2013-4-10,49.3,44.3,39.9,47.2,43.3,38.6,99,96,85,29.28,29.13,6,1,8,0.00
2013-4-11,47.3,44.3,39.7,47.0,43.9,39.5,99,98,95,29.12,28.92,8,2,11,0.43
2013-4-12,56.7,47.4,39.9,48.7,43.9,39.7,99,88,67,29.34,28.92,11,2,11,0.02
2013-4-13,54.7,45.6,36.7,54.4,45.1,36.4,99,98,82,29.36,29.07,11,4,15,0.18
2013-4-14,60.3,54.9,50.7,55.3,51.9,47.4,99,90,74,29.21,29.05,17,7,20,0.12
2013-4-15,64.2,55.2,49.5,51.3,47.7,44.0,99,78,49,29.47,29.17,15,7,21,0.09
2013-4-16,60.8,53.9,47.3,50.3,41.5,36.0,99,65,41,29.58,29.15,15,5,27,0.01
2013-4-17,59.7,52.4,46.6,56.9,49.5,38.6,99,90,72,29.56,28.89,24,8,31,0.11
2013-4-18,57.0,49.8,45.5,47.0,44.1,41.7,95,82,60,29.73,28.93,23,9,27,0.18
2013-4-19,55.0,46.6,42.1,44.3,41.6,39.8,92,83,63,29.99,29.75,11,4,14,0.00
2013-4-20,65.5,50.5,37.0,52.7,43.0,36.5,99,77,45,29.99,29.76,8,3,15,0.00
2013-4-21,60.4,50.7,44.8,49.0,43.0,38.7,94,76,53,29.75,29.47,9,3,11,0.04
2013-4-22,63.3,53.3,45.1,55.2,47.5,40.8,94,81,60,29.50,29.33,17,4,18,0.00
2013-4-23,66.4,57.4,49.1,53.9,49.2,44.7,93,75,58,29.64,29.47,14,4,17,0.00
2013-4-24,64.8,55.1,46.6,56.2,51.8,46.3,99,89,71,29.78,29.55,10,3,16,0.05
2013-4-25,59.7,49.8,44.2,49.6,45.0,38.1,99,85,58,29.75,29.62,8,2,12,0.08
2013-4-26,56.1,48.2,40.6,41.4,36.2,2.8,87,65,12,29.69,29.55,14,6,17,0.00
2013-4-27,57.7,47.4,41.4,42.2,38.8,35.3,93,73,54,29.72,29.59,11,4,11,0.00
2013-4-28,57.9,49.8,43.0,50.5,41.8,-4.1,93,75,10,29.65,29.35,15,4,17,0.08
2013-4-29,60.1,50.3,42.3,47.3,39.1,33.7,84,67,44,29.76,29.41,18,5,18,0.02
2013-4-30,68.0,50.8,43.0,43.4,38.3,35.4,76,63,36,29.92,29.60,5,2,8,3.87
2013-5-1,63.9,52.8,43.5,50.2,43.7,35.8,91,72,50,29.91,29.85,7,2,11,0.00
2013-5-2,67.3,53.0,38.1,50.7,44.7,37.3,99,76,51,29.91,29.74,6,2,9,0.00
2013-5-3,63.5,57.2,52.2,50.0,47.6,45.3,85,71,57,29.74,29.46,13,5,14,0.01
2013-5-4,66.2,55.6,48.0,52.2,44.9,41.5,87,69,46,29.61,29.42,14,4,17,0.00
2013-5-5,74.5,62.0,55.0,56.1,52.9,49.4,90,74,51,29.66,29.60,8,3,11,0.00
2013-5-6,68.0,54.5,43.0,52.7,43.9,35.4,96,69,36,30.06,29.91,7,2,9,7.78
2013-5-7,65.3,55.8,48.4,54.3,50.3,47.3,99,83,64,29.94,29.59,5,2,8,0.00
2013-5-8,63.5,54.4,47.8,57.8,50.8,40.5,99,88,66,29.97,29.21,11,5,17,0.43
2013-5-9,60.8,51.8,46.0,52.6,46.8,40.3,99,84,66,29.99,29.64,17,6,21,0.11
2013-5-10,64.9,54.3,47.3,54.9,45.5,37.3,99,74,44,30.17,29.99,13,4,17,0.01
2013-5-11,58.8,50.0,45.7,51.4,44.1,39.1,99,81,62,30.40,30.11,14,4,21,0.15
2013-5-12,62.6,52.2,44.8,54.3,47.0,39.1,97,83,65,30.41,30.22,11,3,14,0.01
2013-5-13,68.0,52.8,43.0,43.4,38.2,35.4,89,60,36,30.32,29.91,13,3,13,4.74
2013-5-14,59.9,48.7,42.4,45.5,41.5,38.2,99,78,48,29.91,29.55,8,3,17,0.20
2013-5-15,58.6,49.0,42.8,44.8,42.0,36.3,99,78,54,29.72,29.59,15,4,15,0.02
2013-5-16,53.8,44.5,36.3,46.1,40.0,33.9,97,85,66,29.81,29.66,10,1,11,0.15
2013-5-17,62.8,49.7,38.3,52.3,44.9,38.0,99,85,59,30.10,29.81,8,2,12,0.00
2013-5-18,50.0,49.4,48.2,42.4,41.1,40.6,77,73,70,30.09,30.06,4,2,8,0.00
2013-5-19,64.0,54.9,49.1,54.9,49.4,46.2,99,83,61,30.22,29.98,5,1,6,0.00
2013-5-20,65.3,57.6,53.6,59.0,54.0,50.2,94,88,76,30.30,30.18,8,3,10,0.00
2013-5-21,67.6,56.3,49.3,52.9,49.4,46.8,94,79,54,30.36,30.28,12,4,14,0.00
2013-5-22,62.6,54.3,49.1,52.2,44.2,37.8,99,71,47,30.44,30.36,8,4,13,0.02
2013-5-23,56.7,48.9,43.2,44.8,38.4,33.7,84,68,47,30.38,30.25,12,5,16,0.01
2013-5-24,60.6,51.1,44.1,43.4,39.6,35.0,81,66,51,30.40,30.20,11,4,17,0.00
2013-5-25,64.8,52.1,40.6,51.5,45.2,38.8,97,78,59,30.41,30.34,11,2,13,0.00
2013-5-26,69.1,57.7,48.9,57.7,50.1,46.7,97,77,49,30.35,29.98,13,3,13,0.00
2013-5-27,61.2,52.7,47.1,56.0,49.9,46.9,99,91,66,29.97,29.62,9,3,10,0.20
2013-5-28,60.3,52.0,42.1,51.8,47.9,41.7,99,87,69,29.85,29.68,5,2,8,0.07
2013-5-29,70.0,59.4,49.5,55.5,51.4,46.9,99,77,59,30.16,29.84,9,4,16,0.19
2013-5-30,74.3,62.2,52.7,53.7,49.1,44.2,86,63,45,30.31,30.15,13,4,17,0.00
2013-5-31,68.7,57.7,48.6,58.8,50.7,40.7,93,78,62,30.47,30.31,4,2,9,0.00
2013-6-1,63.9,55.5,46.9,57.1,47.4,40.0,91,75,58,30.58,30.47,11,2,11,0.01
2013-6-2,65.5,56.9,50.2,53.9,50.0,45.6,86,78,60,30.65,30.58,6,1,9,0.00
2013-6-3,70.9,60.6,50.5,60.3,53.9,47.4,99,80,55,30.68,30.64,6,1,7,0.00
2013-6-4,74.3,58.7,46.9,61.8,51.0,45.6,99,77,50,30.65,30.45,5,1,7,0.00
2013-6-5,75.4,60.1,46.4,61.5,52.2,46.0,99,77,55,30.45,30.31,5,2,6,0.00
2013-6-6,72.9,58.4,45.9,62.1,52.6,45.6,99,82,56,30.43,30.33,5,2,8,0.00
2013-6-7,77.0,57.1,48.6,62.1,52.8,48.3,99,89,51,30.47,30.42,3,1,5,0.00
2013-6-9,79.0,59.5,46.2,62.8,51.5,45.7,99,77,52,29.76,29.60,8,2,8,0.00
2013-6-10,69.8,58.6,49.6,56.8,50.8,44.8,93,76,58,29.61,29.48,15,5,15,0.00
2013-6-11,68.4,57.0,52.0,65.3,56.5,51.7,99,98,89,29.48,29.30,11,4,11,0.21
2013-6-12,73.2,59.0,54.5,62.2,55.9,54.2,99,91,64,29.34,29.21,7,3,7,0.04
2013-6-13,68.4,57.8,43.2,58.8,52.4,27.2,99,84,53,29.55,29.19,6,2,6,0.13
2013-6-14,67.3,55.7,50.2,59.2,52.9,47.6,99,91,69,29.55,29.04,13,4,13,0.47
2013-6-15,68.5,58.1,48.0,57.8,50.4,45.4,99,77,53,29.37,29.14,8,3,8,0.01
2013-6-16,63.7,57.0,52.2,57.0,53.5,50.8,99,89,69,29.59,29.38,9,3,11,0.13
2013-6-17,68.7,56.8,51.8,63.8,55.0,51.5,99,94,73,29.67,29.59,5,2,8,0.13
2013-6-18,78.1,61.9,50.0,62.6,55.8,49.7,99,82,56,29.65,29.59,5,1,8,0.00
2013-6-19,76.6,62.1,54.7,57.7,53.2,51.0,93,75,47,29.72,29.64,6,2,9,0.00
2013-6-20,72.9,60.6,50.9,59.5,54.9,49.7,99,83,56,29.67,29.43,8,2,8,0.00
2013-6-21,75.0,61.5,55.4,63.1,58.1,52.0,99,90,59,29.50,29.24,9,3,14,0.05
2013-6-22,70.3,60.5,53.6,59.5,55.1,53.0,99,83,61,29.24,29.07,10,3,14,0.17
2013-6-23,63.5,57.3,53.2,56.4,52.5,46.0,98,84,64,29.80,29.22,11,5,20,0.01
2013-6-24,71.2,58.5,50.9,55.2,50.6,48.1,95,77,50,29.94,29.81,8,2,9,0.00
2013-6-25,73.6,60.5,49.6,60.9,55.9,49.0,99,86,58,30.07,29.93,5,1,6,0.00
2013-6-26,70.9,62.0,54.9,57.6,53.8,48.6,95,75,58,30.16,30.07,5,2,7,0.00
2013-6-27,70.2,60.8,52.9,66.8,58.0,50.1,99,91,69,30.14,29.88,9,2,10,0.12
2013-6-28,78.8,64.7,56.7,68.6,61.2,54.7,99,89,68,29.88,29.74,10,3,11,0.01
2013-6-29,80.4,63.7,54.1,67.4,57.5,50.1,93,81,60,29.88,29.83,6,2,11,0.00
2013-6-30,72.7,63.3,55.2,63.1,55.4,47.5,92,76,57,29.87,29.63,6,2,13,0.01
2013-7-1,70.3,60.8,52.7,55.8,50.5,47.6,88,70,50,29.67,29.58,5,2,8,0.00
2013-7-2,66.7,58.7,54.5,64.6,56.2,48.6,99,92,70,29.57,29.10,11,3,13,0.17
2013-7-3,72.7,62.7,54.5,63.2,58.2,54.2,99,86,63,29.50,29.15,8,2,11,0.01
2013-7-4,75.6,66.3,57.4,64.4,57.3,49.9,99,75,53,29.90,29.45,12,3,14,0.00
2013-7-5,73.0,62.6,53.6,60.9,54.1,47.8,85,74,56,30.04,29.91,11,2,12,0.00
2013-7-6,72.0,60.4,47.7,63.5,54.7,44.3,99,82,61,30.11,29.98,11,2,11,0.00
2013-7-7,74.8,65.7,58.5,66.9,63.4,58.2,99,93,72,30.23,30.10,5,1,6,0.00
2013-7-8,82.0,67.0,55.9,66.6,61.0,55.7,99,83,55,30.23,30.14,4,1,6,0.00
2013-7-9,89.6,71.9,57.0,71.7,61.5,54.9,99,72,47,30.15,30.00,3,1,4,0.00
2013-7-10,79.7,66.9,58.8,66.7,62.8,58.6,99,88,63,30.01,29.95,5,2,7,0.00
2013-7-11,83.5,66.4,55.8,68.7,60.7,55.5,99,83,58,29.98,29.93,5,1,6,0.00
2013-7-12,81.7,68.9,53.2,66.5,60.3,53.0,99,76,46,29.94,29.89,7,1,9,0.00
2013-7-13,81.0,68.2,58.3,69.0,63.5,57.7,99,86,64,30.00,29.89,4,1,6,0.00
2013-7-14,74.7,63.9,56.1,64.3,60.2,55.9,99,89,67,29.99,29.86,6,2,8,0.00
2013-7-15,70.7,63.2,56.8,64.6,60.0,56.6,99,90,74,29.92,29.86,7,1,7,0.00
2013-7-16,81.9,66.0,54.9,63.7,60.5,54.6,99,84,52,29.91,29.88,6,1,7,0.00
2013-7-17,78.8,69.2,61.3,66.1,62.1,56.5,97,79,59,29.99,29.90,4,1,6,0.00
2013-7-18,87.8,68.8,56.7,69.6,60.9,56.4,99,78,51,30.02,29.98,4,0,4,0.00
2013-7-19,86.0,71.2,61.0,72.7,66.0,60.7,99,85,57,30.01,29.90,4,1,6,0.00
2013-7-20,78.6,68.5,60.6,69.8,64.8,60.4,99,89,70,29.91,29.82,6,1,9,0.00
2013-7-21,73.8,64.2,57.6,64.6,61.3,57.3,99,91,70,29.83,29.68,0,0,1,0.00
2013-7-22,77.0,65.8,59.4,67.8,63.8,58.7,99,94,71,29.68,29.55,9,2,12,0.00
2013-7-23,77.9,67.4,60.4,69.7,64.8,60.2,99,92,65,29.55,29.45,11,3,13,0.00
2013-7-24,72.7,65.9,61.0,68.2,64.3,60.7,99,95,76,29.49,29.42,12,4,12,0.01
2013-7-25,75.0,65.1,59.9,71.9,64.0,59.6,99,96,78,29.47,29.40,7,1,8,0.00
2013-7-26,75.7,65.4,55.8,70.4,62.6,55.5,99,91,73,29.50,29.44,9,2,11,0.00
2013-7-27,73.8,62.8,54.1,68.0,61.1,53.9,99,94,79,29.47,29.26,7,2,9,0.00
2013-7-28,82.9,65.5,60.8,66.8,63.6,60.5,99,94,57,29.22,29.18,9,3,13,0.00
2013-7-29,81.3,66.0,58.5,68.4,61.6,56.3,99,87,58,29.47,29.22,6,1,10,0.00
2013-7-30,80.1,68.0,56.7,63.6,56.6,53.2,88,68,47,29.53,29.42,11,2,11,0.00
2013-7-31,72.1,62.4,58.3,71.9,60.9,55.0,99,95,79,29.54,29.32,8,2,9,0.00
2013-8-1,70.9,65.6,63.5,70.6,65.3,63.2,99,99,99,29.35,29.17,8,4,13,0.00
2013-8-2,76.8,67.7,60.3,64.8,60.2,53.6,99,79,58,29.30,29.14,11,4,15,0.00
2013-8-3,78.1,64.5,57.6,60.4,56.5,54.1,94,77,50,29.57,29.30,9,3,11,0.00
2013-8-4,76.8,61.9,53.4,67.9,60.3,53.2,99,95,65,29.56,29.48,8,2,9,0.00
2013-8-5,73.4,63.8,56.5,62.2,57.5,49.1,99,82,51,29.61,29.41,6,2,11,0.00
2013-8-6,72.1,62.7,57.0,61.3,57.4,52.8,95,83,59,29.64,29.55,8,2,11,0.00
2013-8-7,79.0,63.7,51.8,65.0,58.3,51.5,99,84,58,29.71,29.56,5,1,6,0.00
2013-8-8,78.8,65.8,57.0,67.6,58.8,53.7,99,80,50,29.70,29.55,14,2,14,0.00
2013-8-9,68.9,63.4,58.6,58.2,55.3,52.6,96,76,59,29.86,29.57,11,3,14,0.00
2013-8-10,79.3,66.2,57.7,60.5,56.1,51.8,86,71,50,29.87,29.70,5,1,7,0.00
2013-8-11,77.9,64.3,55.0,60.9,54.4,51.3,95,72,46,29.72,29.65,10,3,12,0.00
2013-8-12,72.5,62.0,54.9,58.5,52.1,46.7,88,71,48,29.80,29.64,10,3,14,0.00
2013-8-13,76.5,62.8,56.3,62.6,57.7,49.3,99,84,61,29.83,29.77,6,2,9,0.00
2013-8-14,81.3,67.9,57.2,71.1,63.8,56.4,99,88,67,29.81,29.62,5,1,5,0.00
2013-8-15,73.8,67.2,63.1,67.6,65.5,61.8,99,94,77,29.62,29.41,6,2,7,0.00
2013-8-16,81.3,66.9,54.9,66.6,59.0,7.9,99,78,10,29.58,29.47,5,2,10,0.05
2013-8-17,77.5,65.5,59.0,70.0,62.0,52.3,99,89,74,29.52,29.12,8,2,11,0.00
2013-8-18,75.2,63.2,56.5,60.5,54.5,50.6,97,75,50,29.53,29.27,6,2,11,0.00
2013-8-19,77.4,63.0,52.3,59.9,55.1,50.4,95,77,55,29.91,29.56,5,1,5,0.00
2013-8-20,83.5,66.7,57.4,65.1,58.1,55.9,96,76,52,29.94,29.77,5,2,9,0.00
2013-8-21,75.7,69.8,63.3,63.7,62.0,59.7,98,77,64,29.77,29.72,7,2,7,0.00
2013-8-22,71.1,62.1,57.7,64.8,60.7,57.5,99,95,78,29.75,29.58,5,2,8,0.00
2013-8-23,65.8,61.4,57.2,65.6,60.8,56.9,99,98,89,29.59,29.51,6,2,8,0.00
2013-8-24,70.5,60.4,52.3,61.0,55.5,51.4,99,86,55,29.67,29.59,8,2,8,0.00
2013-8-25,76.6,58.5,43.0,65.3,53.6,35.4,99,86,36,29.99,29.60,5,1,8,7.30
2013-8-26,75.0,63.2,55.2,66.2,59.4,54.8,99,88,68,30.01,29.94,4,1,6,0.00
2013-8-27,79.0,63.4,54.9,69.2,61.3,54.6,99,93,66,30.07,29.93,4,1,51,0.00
2013-8-28,68.5,61.5,54.5,61.8,57.7,54.0,99,88,73,30.09,29.96,4,1,8,0.00
2013-8-29,81.7,69.3,59.7,68.8,62.2,58.6,99,80,56,29.98,29.89,4,2,8,0.00
2013-8-30,83.3,63.9,43.0,70.2,53.6,35.4,99,70,36,30.17,29.82,14,3,14,7.30
2013-8-31,64.2,57.9,52.9,51.2,48.7,45.7,85,72,58,30.39,30.17,7,3,10,0.00
2013-9-1,70.0,61.4,53.2,56.1,52.8,48.4,86,74,59,30.40,30.28,10,3,15,0.00
2013-9-2,78.8,65.6,58.1,66.4,60.6,52.3,99,85,64,30.29,30.20,7,3,11,0.00
2013-9-4,64.4,63.3,61.0,56.0,52.8,51.3,75,69,63,29.87,29.85,2,1,2,0.00
2013-9-5,70.2,59.2,52.0,58.9,52.3,48.8,99,79,49,29.91,29.82,6,2,6,0.00
2013-9-6,66.2,54.8,47.5,54.5,50.0,47.2,99,86,54,29.85,29.78,6,2,10,0.00
2013-9-7,55.9,51.2,48.2,53.3,49.4,47.8,99,94,78,29.82,29.76,8,3,12,0.00
2013-9-8,65.5,55.5,49.6,57.0,51.7,49.2,99,88,68,29.89,29.81,4,1,8,0.00
2013-9-10,58.6,57.8,57.4,54.8,54.3,53.9,90,88,86,30.26,30.25,5,3,8,0.00
2013-9-11,70.7,61.2,54.7,65.8,59.8,52.7,99,95,83,30.27,30.03,8,3,16,0.00
2013-9-12,75.7,63.4,55.8,69.5,62.8,55.5,99,98,81,30.06,29.91,7,1,12,0.00
2013-9-13,61.0,55.6,50.7,56.4,51.6,48.2,99,87,68,30.06,30.00,4,1,5,0.00
2013-9-14,67.5,55.3,48.2,54.4,48.7,45.7,99,80,56,30.07,29.96,5,2,8,0.00
2013-9-15,68.4,57.6,49.3,65.0,50.9,39.9,99,79,49,29.96,29.39,16,5,20,0.00
2013-9-16,61.5,52.3,47.3,48.5,44.4,41.9,91,75,55,29.57,29.47,16,6,19,0.00
2013-9-17,55.0,52.0,50.2,54.8,49.3,43.6,99,91,75,29.56,29.30,8,2,9,0.00
2013-9-18,62.4,53.6,48.4,54.8,49.0,44.7,99,85,68,29.81,29.41,8,2,12,0.00
2013-9-19,68.0,57.5,50.0,61.8,51.9,46.6,99,82,65,29.84,29.51,17,4,17,0.00
2013-9-20,67.6,57.2,51.8,53.2,49.5,46.0,93,76,57,30.00,29.86,4,1,9,0.00
2013-9-21,76.1,63.0,53.6,67.9,60.1,41.9,99,91,54,30.04,29.93,4,1,4,7.30
2013-9-22,82.4,66.6,56.1,69.1,62.2,55.8,99,87,59,30.13,30.03,6,2,7,0.00
2013-9-23,73.4,62.3,59.2,68.7,61.7,58.9,99,98,85,30.09,29.89,5,2,7,0.00
2013-9-24,74.5,61.1,57.6,70.0,60.1,57.3,99,97,78,29.88,29.74,4,1,4,0.00
2013-9-25,62.1,58.6,57.0,61.8,58.4,56.7,99,99,99,29.73,29.67,1,0,1,0.18
2013-9-26,59.5,58.4,57.6,59.3,58.1,57.3,99,91,10,29.80,29.58,118,6,132,0.26
2013-9-27,70.2,60.7,56.5,66.6,59.9,56.2,99,98,83,29.80,29.58,4,1,118,0.01
2013-9-28,73.8,59.4,50.7,67.9,57.5,50.4,99,94,74,29.67,29.49,3,0,3,0.00
2013-9-29,70.5,59.4,36.7,62.6,57.3,36.4,99,93,74,29.58,29.51,4,1,129,0.00
2013-9-30,63.5,58.5,53.8,62.7,58.3,53.2,99,97,10,29.58,28.83,4,2,125,0.00
2013-10-1,59.4,58.4,56.3,59.1,58.1,56.0,99,94,10,29.48,28.83,115,8,132,0.01
2013-10-2,61.9,59.6,26.1,61.6,59.3,25.8,99,99,99,29.45,28.83,8,3,116,0.00
2013-10-3,63.5,60.8,59.4,63.2,60.5,59.1,99,89,10,29.43,29.31,132,8,132,0.00
2013-10-4,68.5,61.1,57.6,65.2,60.0,57.3,99,96,82,29.70,29.34,8,1,10,0.00
2013-10-5,74.7,60.4,50.5,64.1,55.8,50.3,99,86,67,29.97,29.80,4,1,4,0.00
2013-10-6,70.3,63.6,55.2,67.1,62.0,50.4,99,95,81,29.97,29.93,4,2,4,0.00
2013-10-7,68.4,65.2,62.2,65.1,59.3,-99.9,99,93,85,29.95,29.58,5,2,5,0.00
2013-10-8,66.9,60.9,57.0,62.3,57.9,55.0,99,90,73,30.11,29.91,6,1,6,0.00
2013-10-9,57.7,55.2,45.3,55.7,49.3,39.5,94,81,64,30.11,29.98,11,3,11,0.00
2013-10-10,58.3,48.8,20.3,46.6,36.5,-13.7,92,69,10,30.20,29.58,49,6,49,0.00
2013-10-11,61.7,53.9,49.5,54.5,48.8,-4.2,98,84,10,30.22,29.58,9,4,115,0.00
2013-10-12,55.9,54.6,52.0,55.7,53.1,50.3,99,95,88,30.18,29.98,8,3,122,0.00
2013-10-13,55.4,53.8,51.6,55.1,51.9,48.1,99,94,80,29.99,29.77,6,2,116,0.00
2013-10-14,57.7,53.0,48.9,52.6,50.6,47.8,99,92,81,29.77,29.58,8,2,116,0.00
2013-10-15,72.1,53.3,45.0,64.9,51.2,44.7,99,93,60,29.71,29.65,4,1,118,0.00
2013-10-16,57.7,54.1,51.3,57.5,53.7,51.0,99,98,94,29.67,29.33,9,3,115,0.00
2013-10-17,70.2,57.0,49.5,65.0,54.8,49.2,99,93,69,29.70,29.55,4,0,116,0.00
2013-10-18,58.3,56.6,53.6,58.0,56.3,53.3,99,99,99,29.70,29.28,11,4,116,0.00
2013-10-19,64.8,58.0,54.5,64.5,57.8,54.2,99,99,97,29.28,29.22,6,1,122,0.00
2013-10-20,68.7,56.6,50.5,61.2,54.8,50.3,99,94,72,29.35,28.83,115,3,132,0.00
2013-10-21,62.6,56.2,49.1,62.3,55.9,48.8,99,99,99,29.35,28.83,8,2,129,0.00
2013-10-22,65.5,59.0,56.8,64.0,58.7,56.6,99,99,92,29.03,28.83,4,1,7,0.00
2013-10-23,57.0,53.7,50.9,56.8,53.3,49.5,99,98,95,29.12,28.84,14,3,14,0.00
2013-10-25,60.1,57.8,56.7,59.8,56.0,41.9,99,95,54,30.67,29.86,3,1,4,0.00
2013-10-28,52.7,49.5,47.5,48.5,46.8,45.0,97,91,75,30.10,29.83,10,4,19,0.00
2013-10-29,56.7,48.2,42.8,46.8,43.7,40.7,96,85,68,30.56,30.10,11,3,16,0.00
2013-10-30,58.1,50.6,43.2,57.1,49.7,42.5,99,97,87,30.56,30.27,19,3,19,0.00
2013-10-31,63.1,51.9,28.6,51.9,47.8,25.2,99,86,65,30.49,30.31,9,2,11,0.00
2013-11-1,53.8,46.8,37.8,48.4,44.1,37.5,99,91,72,30.33,29.55,5,1,132,0.00
2013-11-2,54.3,46.1,36.3,51.4,44.0,36.1,99,93,76,30.12,29.48,19,6,116,0.00
2013-11-3,56.1,46.5,42.3,45.0,42.6,39.5,99,87,66,30.03,29.55,115,4,132,0.00
2013-11-4,53.6,44.7,39.2,44.7,41.5,38.2,99,89,68,29.98,29.55,8,2,116,0.00
2013-11-5,54.9,49.1,45.0,49.6,46.0,43.0,99,89,75,29.97,29.55,14,5,17,0.00
2013-11-6,51.6,47.6,43.3,51.0,46.7,43.1,99,97,91,30.08,29.55,5,1,132,0.00
2013-11-7,53.6,47.4,41.7,44.8,42.8,39.0,99,85,67,30.16,30.08,14,3,129,0.00
2013-11-8,47.8,46.2,43.2,43.6,41.7,39.7,90,84,81,30.16,30.11,8,2,132,0.00
2013-11-9,49.8,44.2,39.2,43.0,40.8,37.2,97,88,76,30.24,30.11,4,2,4,0.00
2013-11-10,52.2,45.1,34.0,51.9,38.9,-12.8,99,85,10,30.64,30.25,6,2,11,1.17
2013-11-11,61.5,56.0,23.0,61.1,54.6,21.6,99,95,79,30.71,30.41,7,1,9,0.09
2013-11-12,53.1,49.1,41.4,51.0,45.3,39.8,97,82,10,31.09,30.31,122,3,122,0.00
2013-11-13,46.4,42.7,38.8,44.4,41.5,38.6,99,95,89,31.09,30.31,4,1,5,0.00
2013-11-14,50.4,47.5,44.4,44.5,42.9,41.3,97,84,76,30.09,29.66,14,5,14,0.00
2013-11-15,54.3,49.1,45.0,49.5,46.0,42.4,99,89,79,30.09,30.01,3,1,4,0.00
2013-11-16,54.5,50.9,43.7,52.8,49.3,42.9,99,94,85,30.01,29.88,8,1,9,0.09
2013-11-17,56.1,52.2,50.5,55.9,52.0,50.3,99,99,99,29.88,29.44,3,0,5,0.00
2013-11-18,51.6,46.8,43.3,51.4,46.4,43.1,99,98,91,29.44,29.39,8,2,13,0.00
2013-11-19,45.7,41.0,31.3,41.9,37.3,27.0,90,87,84,29.65,29.40,4,1,18,0.01
2013-11-20,47.7,46.0,44.2,46.0,43.4,38.0,99,91,72,29.43,29.16,5,2,24,0.00
2013-12-20,55.2,47.8,40.1,53.4,45.0,37.4,99,90,76,29.38,29.01,8,3,18,0.00
2013-12-21,51.4,46.9,42.3,48.3,43.1,37.3,99,87,74,29.14,28.85,5,3,16,0.00
2013-12-22,44.2,40.6,36.5,39.7,36.9,35.0,99,87,74,29.19,28.97,7,3,16,0.00
2013-12-23,54.0,47.4,37.2,53.0,45.5,34.4,99,93,81,29.16,27.89,5,2,13,0.00
2013-12-24,44.6,42.1,39.6,39.1,34.3,28.2,88,74,59,28.23,27.93,10,4,25,0.00
2013-12-25,44.8,37.6,32.4,39.7,34.9,31.2,99,90,76,28.64,28.23,1,0,5,0.00
2013-12-26,50.2,44.5,33.1,49.9,43.2,32.8,99,95,83,28.87,28.01,6,3,25,0.00
2013-12-27,49.5,45.1,40.6,45.4,41.1,38.2,96,86,73,30.34,27.86,9,5,42,0.00
2013-12-28,45.7,41.6,38.7,39.7,38.4,36.3,97,88,79,30.99,30.33,3,1,15,0.00
2013-12-29,51.6,44.0,38.3,51.2,41.4,35.3,99,91,79,31.17,30.71,3,1,17,0.00
2013-12-30,52.0,46.4,41.4,51.7,45.7,39.9,99,98,90,30.94,30.53,4,1,15,0.00
2013-12-31,49.5,44.6,40.5,49.2,43.5,37.6,99,96,79,30.72,30.44,5,2,17,0.00
2014-1-1,68.0,46.3,37.9,50.6,44.6,36.4,99,95,36,31.26,29.73,4,1,21,0.00
2014-1-2,47.5,44.2,42.3,43.3,42.1,40.4,97,92,82,30.27,30.08,3,1,14,0.00